createdAt,value
2023-08-08T00:00:49.944Z,13.75
2023-08-08T00:03:35.865Z,13.75
2023-08-08T00:06:04.502Z,13.77
2023-08-08T00:08:32.831Z,13.79
2023-08-08T00:11:01.269Z,13.80
2023-08-08T00:13:29.742Z,13.82
2023-08-08T00:15:58.203Z,13.85
2023-08-08T00:18:26.637Z,13.85
2023-08-08T00:20:55.193Z,13.87
2023-08-08T00:23:23.532Z,13.88
2023-08-08T00:25:52.983Z,13.89
2023-08-08T00:28:21.280Z,13.90
2023-08-08T00:30:49.824Z,13.91
2023-08-08T00:33:18.512Z,13.92
2023-08-08T00:35:47.019Z,13.91
2023-08-08T00:38:16.918Z,13.93
2023-08-08T00:40:45.821Z,13.93
2023-08-08T00:43:14.414Z,13.92
2023-08-08T00:45:44.956Z,13.92
2023-08-08T00:48:14.042Z,13.90
2023-08-08T00:50:44.718Z,13.90
2023-08-08T00:53:14.807Z,13.92
2023-08-08T00:55:45.017Z,13.92
2023-08-08T00:58:14.383Z,13.92
2023-08-08T01:00:42.940Z,13.90
2023-08-08T01:03:11.493Z,13.90
2023-08-08T01:05:48.612Z,13.88
2023-08-08T01:08:23.533Z,13.86
2023-08-08T01:10:53.216Z,13.84
2023-08-08T01:13:26.437Z,13.83
2023-08-08T01:15:57.405Z,13.80
2023-08-08T01:18:26.910Z,13.77
2023-08-08T01:20:57.650Z,13.74
2023-08-08T01:23:31.399Z,13.71
2023-08-08T01:26:00.307Z,13.69
2023-08-08T01:28:29.058Z,13.66
2023-08-08T01:30:57.509Z,13.63
2023-08-08T01:33:25.992Z,13.58
2023-08-08T01:35:59.678Z,13.52
2023-08-08T01:38:32.636Z,13.44
2023-08-08T01:41:02.556Z,13.37
2023-08-08T01:43:31.576Z,13.31
2023-08-08T01:46:04.011Z,13.25
2023-08-08T01:48:33.362Z,13.19
2023-08-08T01:51:01.915Z,13.13
2023-08-08T01:53:30.573Z,13.07
2023-08-08T01:55:58.979Z,13.00
2023-08-08T01:58:27.440Z,12.95
2023-08-08T02:00:55.822Z,12.90
2023-08-08T02:03:24.398Z,12.85
2023-08-08T02:05:52.994Z,12.81
2023-08-08T02:08:21.716Z,12.75
2023-08-08T02:10:50.081Z,12.72
2023-08-08T02:13:18.455Z,12.67
2023-08-08T02:15:47.501Z,12.65
2023-08-08T02:18:15.915Z,12.61
2023-08-08T02:20:44.240Z,12.57
2023-08-08T02:23:12.742Z,12.52
2023-08-08T02:25:41.059Z,12.45
2023-08-08T02:28:10.077Z,12.42
2023-08-08T02:30:38.837Z,12.38
2023-08-08T02:33:07.476Z,12.35
2023-08-08T02:35:38.002Z,12.31
2023-08-08T02:38:06.543Z,12.19
2023-08-08T02:40:34.982Z,12.25
2023-08-08T02:43:03.468Z,12.22
2023-08-08T02:45:32.337Z,12.18
2023-08-08T02:48:00.848Z,12.14
2023-08-08T02:50:29.806Z,12.10
2023-08-08T02:52:58.356Z,12.07
2023-08-08T02:55:27.751Z,12.05
2023-08-08T02:57:56.190Z,12.03
2023-08-08T03:00:24.788Z,12.01
2023-08-08T03:02:54.592Z,11.99
2023-08-08T03:05:23.181Z,11.92
2023-08-08T03:07:51.608Z,11.95
2023-08-08T03:10:21.093Z,11.93
2023-08-08T03:12:50.524Z,11.91
2023-08-08T03:15:19.924Z,11.89
2023-08-08T03:17:48.665Z,11.87
2023-08-08T03:20:17.755Z,11.83
2023-08-08T03:22:46.318Z,11.81
2023-08-08T03:25:15.026Z,11.79
2023-08-08T03:27:44.788Z,11.76
2023-08-08T03:30:15.617Z,11.67
2023-08-08T03:32:44.788Z,11.71
2023-08-08T03:35:13.209Z,11.69
2023-08-08T03:37:43.017Z,11.67
2023-08-08T03:40:14.269Z,11.67
2023-08-08T03:42:42.806Z,11.66
2023-08-08T03:45:12.399Z,11.65
2023-08-08T03:47:40.899Z,11.64
2023-08-08T03:50:12.470Z,11.65
2023-08-08T03:52:41.012Z,11.65
2023-08-08T03:55:12.615Z,11.63
2023-08-08T03:57:42.707Z,11.63
2023-08-08T04:00:12.457Z,11.63
2023-08-08T04:02:43.516Z,11.63
2023-08-08T04:05:12.716Z,11.63
2023-08-08T04:07:41.240Z,11.64
2023-08-08T04:10:10.806Z,11.65
2023-08-08T04:12:39.228Z,11.66
2023-08-08T04:15:09.843Z,11.68
2023-08-08T04:17:38.791Z,11.69
2023-08-08T04:20:10.477Z,11.70
2023-08-08T04:22:38.885Z,11.72
2023-08-08T04:25:08.979Z,11.74
2023-08-08T04:27:37.400Z,11.74
2023-08-08T04:30:08.422Z,11.79
2023-08-08T04:32:36.837Z,11.81
2023-08-08T04:35:06.215Z,11.84
2023-08-08T04:37:34.637Z,11.88
2023-08-08T04:40:04.199Z,11.90
2023-08-08T04:42:32.675Z,11.93
2023-08-08T04:45:00.993Z,11.98
2023-08-08T04:47:29.694Z,12.04
2023-08-08T04:49:58.356Z,12.10
2023-08-08T04:52:26.797Z,12.18
2023-08-08T04:54:55.287Z,12.26
2023-08-08T04:57:23.833Z,12.35
2023-08-08T04:59:52.332Z,12.40
2023-08-08T05:02:20.810Z,12.46
2023-08-08T05:04:50.500Z,12.54
2023-08-08T05:07:18.881Z,12.60
2023-08-08T05:09:47.301Z,12.65
2023-08-08T05:12:15.702Z,12.68
2023-08-08T05:14:44.260Z,12.69
2023-08-08T05:17:12.945Z,12.67
2023-08-08T05:19:41.409Z,12.67
2023-08-08T05:22:09.848Z,12.68
2023-08-08T05:24:38.309Z,12.73
2023-08-08T05:27:07.265Z,12.79
2023-08-08T05:29:38.530Z,12.87
2023-08-08T05:32:08.692Z,12.98
2023-08-08T05:34:37.421Z,13.09
2023-08-08T05:37:16.468Z,13.21
2023-08-08T05:39:46.099Z,13.29
2023-08-08T05:42:14.810Z,13.37
2023-08-08T05:44:43.402Z,13.47
2023-08-08T05:47:11.906Z,13.58
2023-08-08T05:49:42.003Z,13.62
2023-08-08T05:52:10.678Z,13.69
2023-08-08T05:54:39.478Z,13.72
2023-08-08T05:57:08.703Z,13.78
2023-08-08T05:59:38.093Z,13.83
2023-08-08T06:02:07.429Z,13.88
2023-08-08T06:04:36.062Z,13.94
2023-08-08T06:07:06.734Z,13.96
2023-08-08T06:09:37.895Z,14.00
2023-08-08T06:12:08.048Z,14.07
2023-08-08T06:14:37.205Z,14.19
2023-08-08T06:17:06.369Z,14.34
2023-08-08T06:19:34.719Z,14.51
2023-08-08T06:22:04.094Z,14.65
2023-08-08T06:24:32.892Z,14.75
2023-08-08T06:27:01.420Z,14.80
2023-08-08T06:29:31.295Z,14.83
2023-08-08T06:32:00.142Z,14.85
2023-08-08T06:34:29.128Z,14.90
2023-08-08T06:36:58.118Z,14.96
2023-08-08T06:39:26.735Z,15.05
2023-08-08T06:41:55.280Z,15.16
2023-08-08T06:44:34.154Z,15.27
2023-08-08T06:47:02.907Z,15.35
2023-08-08T06:49:31.359Z,15.41
2023-08-08T06:52:00.957Z,15.47
2023-08-08T06:54:30.249Z,15.52
2023-08-08T06:57:01.229Z,15.56
2023-08-08T06:59:30.158Z,15.62
2023-08-08T07:01:58.664Z,15.73
2023-08-08T07:04:27.233Z,15.74
2023-08-08T07:06:55.732Z,15.83
2023-08-08T07:09:25.002Z,15.80
2023-08-08T07:11:53.584Z,15.73
2023-08-08T07:14:22.372Z,15.83
2023-08-08T07:16:51.247Z,15.95
2023-08-08T07:19:19.799Z,16.10
2023-08-08T07:21:48.340Z,16.21
2023-08-08T07:24:17.337Z,16.32
2023-08-08T07:26:45.754Z,16.37
2023-08-08T07:29:14.305Z,16.40
2023-08-08T07:31:43.027Z,16.40
2023-08-08T07:34:11.450Z,16.40
2023-08-08T07:36:39.805Z,16.35
2023-08-08T07:39:08.120Z,16.28
2023-08-08T07:41:36.644Z,16.28
2023-08-08T07:44:06.032Z,16.29
2023-08-08T07:46:34.655Z,16.35
2023-08-08T07:49:04.329Z,16.42
2023-08-08T07:51:33.237Z,16.52
2023-08-08T07:54:01.695Z,16.61
2023-08-08T07:56:30.090Z,16.67
2023-08-08T07:58:58.565Z,16.79
2023-08-08T08:01:27.945Z,16.91
2023-08-08T08:03:56.779Z,16.96
2023-08-08T08:06:25.175Z,16.98
2023-08-08T08:08:53.699Z,16.99
2023-08-08T08:11:22.134Z,17.01
2023-08-08T08:13:50.625Z,17.01
2023-08-08T08:16:19.096Z,16.97
2023-08-08T08:18:48.481Z,16.99
2023-08-08T08:21:17.949Z,17.07
2023-08-08T08:23:47.574Z,17.18
2023-08-08T08:26:16.008Z,17.32
2023-08-08T08:28:44.369Z,17.40
2023-08-08T08:31:12.931Z,17.51
2023-08-08T08:33:41.296Z,17.64
2023-08-08T08:36:11.338Z,17.69
2023-08-08T08:38:40.414Z,17.73
2023-08-08T08:41:13.456Z,17.68
2023-08-08T08:43:41.897Z,17.58
2023-08-08T08:46:13.679Z,17.56
2023-08-08T08:48:43.322Z,17.56
2023-08-08T08:51:11.899Z,17.57
2023-08-08T08:53:46.759Z,17.55
2023-08-08T08:56:17.222Z,17.54
2023-08-08T08:58:45.751Z,17.53
2023-08-08T09:01:15.087Z,17.57
2023-08-08T09:03:45.427Z,17.55
2023-08-08T09:06:17.744Z,17.51
2023-08-08T09:08:47.419Z,17.36
2023-08-08T09:11:15.858Z,17.33
2023-08-08T09:13:44.647Z,17.30
2023-08-08T09:16:17.182Z,17.33
2023-08-08T09:18:45.777Z,17.45
2023-08-08T09:21:16.104Z,17.51
2023-08-08T09:23:46.306Z,17.60
2023-08-08T09:26:17.017Z,17.77
2023-08-08T09:28:45.578Z,17.96
2023-08-08T09:31:14.153Z,18.21
2023-08-08T09:33:44.614Z,18.39
2023-08-08T09:36:16.327Z,18.43
2023-08-08T09:38:45.932Z,18.45
2023-08-08T09:41:15.030Z,18.48
2023-08-08T09:43:45.574Z,18.46
2023-08-08T09:46:14.636Z,18.38
2023-08-08T09:48:43.420Z,18.31
2023-08-08T09:51:13.179Z,18.22
2023-08-08T09:53:42.655Z,18.13
2023-08-08T09:56:11.897Z,18.08
2023-08-08T09:58:40.676Z,18.07
2023-08-08T10:01:09.496Z,18.11
2023-08-08T10:03:38.373Z,18.22
2023-08-08T10:06:06.879Z,18.45
2023-08-08T10:08:35.992Z,18.66
2023-08-08T10:11:06.440Z,18.66
2023-08-08T10:13:36.921Z,18.69
2023-08-08T10:16:09.382Z,18.70
2023-08-08T10:18:38.510Z,18.63
2023-08-08T10:21:07.258Z,18.57
2023-08-08T10:23:39.529Z,18.56
2023-08-08T10:26:20.083Z,18.50
2023-08-08T10:28:59.531Z,18.43
2023-08-08T10:31:36.845Z,18.36
2023-08-08T10:34:07.492Z,18.27
2023-08-08T10:36:49.254Z,18.18
2023-08-08T10:39:21.692Z,18.06
2023-08-08T10:41:51.488Z,18.03
2023-08-08T10:44:26.961Z,18.05
2023-08-08T10:46:58.126Z,18.14
2023-08-08T10:49:28.911Z,18.20
2023-08-08T10:52:04.074Z,18.25
2023-08-08T10:54:33.933Z,18.24
2023-08-08T10:57:02.404Z,18.28
2023-08-08T10:59:39.551Z,18.31
2023-08-08T11:02:08.660Z,18.43
2023-08-08T11:04:38.100Z,18.57
2023-08-08T11:07:07.461Z,18.78
2023-08-08T11:09:36.024Z,18.86
2023-08-08T11:12:05.493Z,18.82
2023-08-08T11:14:34.759Z,18.75
2023-08-08T11:17:03.292Z,18.68
2023-08-08T11:19:32.707Z,18.70
2023-08-08T11:22:01.492Z,18.73
2023-08-08T11:24:36.499Z,18.66
2023-08-08T11:27:05.309Z,18.61
2023-08-08T11:29:34.535Z,18.75
2023-08-08T11:32:03.879Z,18.84
2023-08-08T11:34:34.062Z,18.97
2023-08-08T11:37:02.842Z,19.14
2023-08-08T11:39:31.584Z,19.17
2023-08-08T11:42:00.747Z,19.21
2023-08-08T11:44:29.581Z,19.26
2023-08-08T11:47:01.303Z,19.34
2023-08-08T11:49:30.061Z,19.33
2023-08-08T11:52:00.151Z,19.35
2023-08-08T11:54:29.329Z,19.34
2023-08-08T11:56:57.712Z,19.29
2023-08-08T11:59:26.108Z,19.19
2023-08-08T12:01:54.577Z,19.20
2023-08-08T12:04:25.410Z,19.18
2023-08-08T12:07:03.798Z,19.31
2023-08-08T12:09:33.727Z,19.52
2023-08-08T12:12:03.031Z,19.66
2023-08-08T12:14:37.678Z,19.80
2023-08-08T12:17:15.900Z,19.85
2023-08-08T12:19:48.057Z,19.76
2023-08-08T12:22:17.005Z,19.64
2023-08-08T12:24:45.475Z,19.54
2023-08-08T12:27:14.164Z,19.54
2023-08-08T12:29:42.573Z,19.56
2023-08-08T12:32:11.020Z,19.53
2023-08-08T12:34:39.368Z,19.53
2023-08-08T12:37:08.004Z,19.56
2023-08-08T12:39:36.827Z,19.57
2023-08-08T12:42:05.665Z,19.46
2023-08-08T12:44:34.349Z,19.38
2023-08-08T12:47:03.215Z,19.43
2023-08-08T12:49:32.042Z,19.57
2023-08-08T12:52:00.508Z,19.67
2023-08-08T12:54:29.125Z,19.67
2023-08-08T12:56:57.536Z,19.60
2023-08-08T12:59:26.186Z,19.53
2023-08-08T13:01:54.871Z,19.57
2023-08-08T13:04:23.374Z,19.54
2023-08-08T13:06:52.028Z,19.47
2023-08-08T13:09:20.707Z,19.50
2023-08-08T13:11:49.267Z,19.49
2023-08-08T13:14:17.679Z,19.52
2023-08-08T13:16:46.540Z,19.53
2023-08-08T13:19:17.012Z,19.52
2023-08-08T13:21:49.885Z,19.43
2023-08-08T13:24:18.743Z,19.37
2023-08-08T13:26:47.419Z,19.32
2023-08-08T13:29:15.920Z,19.30
2023-08-08T13:31:44.421Z,19.30
2023-08-08T13:34:13.016Z,19.31
2023-08-08T13:36:41.485Z,19.33
2023-08-08T13:39:10.342Z,19.32
2023-08-08T13:41:38.798Z,19.28
2023-08-08T13:44:07.499Z,19.23
2023-08-08T13:46:35.977Z,19.20
2023-08-08T13:49:05.465Z,19.13
2023-08-08T13:51:33.893Z,19.06
2023-08-08T13:54:02.447Z,19.00
2023-08-08T13:56:30.923Z,18.94
2023-08-08T13:58:59.764Z,18.87
2023-08-08T14:01:28.303Z,18.83
2023-08-08T14:03:56.887Z,18.77
2023-08-08T14:06:26.083Z,18.77
2023-08-08T14:08:54.505Z,18.77
2023-08-08T14:11:23.240Z,18.81
2023-08-08T14:13:51.820Z,18.87
2023-08-08T14:16:20.454Z,19.03
2023-08-08T14:18:48.932Z,19.15
2023-08-08T14:21:17.378Z,19.23
2023-08-08T14:23:46.033Z,19.39
2023-08-08T14:26:14.758Z,19.42
2023-08-08T14:28:43.156Z,19.44
2023-08-08T14:31:11.664Z,19.46
2023-08-08T14:33:40.296Z,19.46
2023-08-08T14:36:08.808Z,19.46
2023-08-08T14:38:37.930Z,19.47
2023-08-08T14:41:06.384Z,19.48
2023-08-08T14:43:34.983Z,19.50
2023-08-08T14:46:03.462Z,19.52
2023-08-08T14:48:32.360Z,19.56
2023-08-08T14:51:03.926Z,19.61
2023-08-08T14:53:32.546Z,19.69
2023-08-08T14:56:01.006Z,19.76
2023-08-08T14:58:29.569Z,19.79
2023-08-08T15:00:58.260Z,19.80
2023-08-08T15:03:26.973Z,19.80
2023-08-08T15:05:55.502Z,19.81
2023-08-08T15:08:25.431Z,19.82
2023-08-08T15:10:53.854Z,19.83
2023-08-08T15:13:22.413Z,19.89
2023-08-08T15:15:51.038Z,20.03
2023-08-08T15:18:19.542Z,20.20
2023-08-08T15:20:47.971Z,20.37
2023-08-08T15:23:16.383Z,20.56
2023-08-08T15:25:45.150Z,20.74
2023-08-08T15:28:13.606Z,20.79
2023-08-08T15:30:42.156Z,20.74
2023-08-08T15:33:10.765Z,20.69
2023-08-08T15:35:39.884Z,20.71
2023-08-08T15:38:08.326Z,20.68
2023-08-08T15:40:39.160Z,20.64
2023-08-08T15:43:08.322Z,20.56
2023-08-08T15:45:37.055Z,20.48
2023-08-08T15:48:06.659Z,20.46
2023-08-08T15:50:35.773Z,20.44
2023-08-08T15:53:05.391Z,20.41
2023-08-08T15:55:34.056Z,20.38
2023-08-08T15:58:02.609Z,20.32
2023-08-08T16:00:31.248Z,20.25
2023-08-08T16:03:00.182Z,20.19
2023-08-08T16:05:29.050Z,20.13
2023-08-08T16:07:57.682Z,20.09
2023-08-08T16:10:26.455Z,20.05
2023-08-08T16:12:55.093Z,19.98
2023-08-08T16:15:25.682Z,19.92
2023-08-08T16:17:54.442Z,19.92
2023-08-08T16:20:24.115Z,19.93
2023-08-08T16:22:52.464Z,19.95
2023-08-08T16:25:21.203Z,19.92
2023-08-08T16:27:49.755Z,19.89
2023-08-08T16:30:18.341Z,19.90
2023-08-08T16:32:46.770Z,19.89
2023-08-08T16:35:15.309Z,19.87
2023-08-08T16:37:43.674Z,19.86
2023-08-08T16:40:12.868Z,19.85
2023-08-08T16:42:41.453Z,19.83
2023-08-08T16:45:11.138Z,19.80
2023-08-08T16:47:39.540Z,19.84
2023-08-08T16:50:10.309Z,19.85
2023-08-08T16:52:39.277Z,19.80
2023-08-08T16:55:11.037Z,19.74
2023-08-08T16:57:39.503Z,19.66
2023-08-08T17:00:10.902Z,19.58
2023-08-08T17:02:39.350Z,19.50
2023-08-08T17:05:09.265Z,19.40
2023-08-08T17:07:37.856Z,19.28
2023-08-08T17:10:07.667Z,19.16
2023-08-08T17:12:36.110Z,19.02
2023-08-08T17:15:06.584Z,18.89
2023-08-08T17:17:35.105Z,18.75
2023-08-08T17:20:05.793Z,18.66
2023-08-08T17:22:34.389Z,18.56
2023-08-08T17:25:03.225Z,18.47
2023-08-08T17:27:35.703Z,18.37
2023-08-08T17:30:09.003Z,18.33
2023-08-08T17:32:37.764Z,18.27
2023-08-08T17:35:07.426Z,18.13
2023-08-08T17:37:35.932Z,17.97
2023-08-08T17:40:07.433Z,17.81
2023-08-08T17:42:36.158Z,17.66
2023-08-08T17:45:06.047Z,17.56
2023-08-08T17:47:34.957Z,17.42
2023-08-08T17:50:04.021Z,17.32
2023-08-08T17:52:32.562Z,17.21
2023-08-08T17:55:01.026Z,17.08
2023-08-08T17:57:29.529Z,16.95
2023-08-08T17:59:57.957Z,16.84
2023-08-08T18:02:26.568Z,16.74
2023-08-08T18:04:55.127Z,16.64
2023-08-08T18:07:24.732Z,16.55
2023-08-08T18:09:53.967Z,16.49
2023-08-08T18:12:22.486Z,16.42
2023-08-08T18:14:53.537Z,16.36
2023-08-08T18:17:22.510Z,16.31
2023-08-08T18:19:51.026Z,16.27
2023-08-08T18:22:19.732Z,16.24
2023-08-08T18:24:48.658Z,16.19
2023-08-08T18:27:17.149Z,16.15
2023-08-08T18:29:45.658Z,16.10
2023-08-08T18:32:14.133Z,16.09
2023-08-08T18:34:42.632Z,16.05
2023-08-08T18:37:11.136Z,16.03
2023-08-08T18:39:39.647Z,15.98
2023-08-08T18:42:08.460Z,15.95
2023-08-08T18:44:36.908Z,15.92
2023-08-08T18:47:06.284Z,15.89
2023-08-08T18:49:34.802Z,15.88
2023-08-08T18:52:03.962Z,15.88
2023-08-08T18:54:33.074Z,15.88
2023-08-08T18:57:01.463Z,15.86
2023-08-08T18:59:30.095Z,15.85
2023-08-08T19:01:59.339Z,15.82
2023-08-08T19:04:27.724Z,15.81
2023-08-08T19:06:59.408Z,15.81
2023-08-08T19:09:28.108Z,15.81
2023-08-08T19:11:56.692Z,15.80
2023-08-08T19:14:27.028Z,15.81
2023-08-08T19:16:55.476Z,15.79
2023-08-08T19:19:23.902Z,15.75
2023-08-08T19:21:53.412Z,15.55
2023-08-08T19:24:21.821Z,15.59
2023-08-08T19:26:50.327Z,15.52
2023-08-08T19:29:18.797Z,15.40
2023-08-08T19:31:47.217Z,15.21
2023-08-08T19:34:15.774Z,15.01
2023-08-08T19:36:44.178Z,14.83
2023-08-08T19:39:12.649Z,14.71
2023-08-08T19:41:42.419Z,14.65
2023-08-08T19:44:11.192Z,14.61
2023-08-08T19:46:39.477Z,14.60
2023-08-08T19:49:08.148Z,14.61
2023-08-08T19:51:36.925Z,14.62
2023-08-08T19:54:06.247Z,14.62
2023-08-08T19:56:34.788Z,14.62
2023-08-08T19:59:04.283Z,14.60
2023-08-08T20:01:33.178Z,14.55
2023-08-08T20:04:01.718Z,14.51
2023-08-08T20:06:30.426Z,14.47
2023-08-08T20:08:58.911Z,14.43
2023-08-08T20:11:28.673Z,14.38
2023-08-08T20:13:57.252Z,14.34
2023-08-08T20:16:27.321Z,14.30
2023-08-08T20:18:55.842Z,14.27
2023-08-08T20:21:24.260Z,14.24
2023-08-08T20:23:52.637Z,14.23
2023-08-08T20:26:21.400Z,14.22
2023-08-08T20:28:50.246Z,14.22
2023-08-08T20:31:19.145Z,14.22
2023-08-08T20:33:47.646Z,14.23
2023-08-08T20:36:16.443Z,14.20
2023-08-08T20:38:44.888Z,14.23
2023-08-08T20:41:13.294Z,14.24
2023-08-08T20:43:42.445Z,14.24
2023-08-08T20:46:14.057Z,14.23
2023-08-08T20:48:43.408Z,14.25
2023-08-08T20:51:11.866Z,14.23
2023-08-08T20:53:40.371Z,14.22
2023-08-08T20:56:08.756Z,14.21
2023-08-08T20:58:37.309Z,14.23
2023-08-08T21:01:05.991Z,14.23
2023-08-08T21:06:21.345Z,14.24
2023-08-08T21:08:49.808Z,14.23
2023-08-08T21:11:18.448Z,14.21
2023-08-08T21:13:47.037Z,14.20
2023-08-08T21:16:16.024Z,14.20
2023-08-08T21:18:44.611Z,14.20
2023-08-08T21:21:13.543Z,14.22
2023-08-08T21:23:42.068Z,14.23
2023-08-08T21:26:10.447Z,14.22
2023-08-08T21:28:38.873Z,14.21
2023-08-08T21:31:07.303Z,14.21
2023-08-08T21:33:35.830Z,14.13
2023-08-08T21:36:04.431Z,14.22
2023-08-08T21:38:33.544Z,14.24
2023-08-08T21:41:02.017Z,14.24
2023-08-08T21:43:30.400Z,14.25
2023-08-08T21:45:58.831Z,14.25
2023-08-08T21:48:27.309Z,14.24
2023-08-08T21:50:57.493Z,14.22
2023-08-08T21:53:26.080Z,14.19
2023-08-08T21:55:54.428Z,14.17
2023-08-08T21:58:23.093Z,14.14
2023-08-08T22:00:52.032Z,14.11
2023-08-08T22:03:20.557Z,14.09
2023-08-08T22:05:49.014Z,14.06
2023-08-08T22:08:17.884Z,14.03
2023-08-08T22:10:46.563Z,14.01
2023-08-08T22:13:14.960Z,13.99
2023-08-08T22:15:43.690Z,13.97
2023-08-08T22:18:14.690Z,13.95
2023-08-08T22:20:44.310Z,13.94
2023-08-08T22:23:20.172Z,13.90
2023-08-08T22:25:50.211Z,13.87
2023-08-08T22:28:18.998Z,13.86
2023-08-08T22:30:48.615Z,13.86
2023-08-08T22:33:18.411Z,13.84
2023-08-08T22:35:46.839Z,13.83
2023-08-08T22:38:15.194Z,13.79
2023-08-08T22:40:45.444Z,13.80
2023-08-08T22:43:14.846Z,13.77
2023-08-08T22:45:43.259Z,13.74
2023-08-08T22:48:11.645Z,13.72
2023-08-08T22:50:42.456Z,13.69
2023-08-08T22:53:11.413Z,13.66
2023-08-08T22:55:39.890Z,13.62
2023-08-08T22:58:08.226Z,13.59
2023-08-08T23:00:37.441Z,13.57
2023-08-08T23:03:07.884Z,13.56
2023-08-08T23:05:36.589Z,13.57
2023-08-08T23:08:06.067Z,13.57
2023-08-08T23:10:34.547Z,13.60
2023-08-08T23:13:03.184Z,13.61
2023-08-08T23:15:31.527Z,13.62
2023-08-08T23:17:59.936Z,13.63
2023-08-08T23:20:28.658Z,13.65
2023-08-08T23:22:57.046Z,13.65
2023-08-08T23:25:25.428Z,13.66
2023-08-08T23:27:53.797Z,13.65
2023-08-08T23:30:22.530Z,13.64
2023-08-08T23:32:53.944Z,13.62
2023-08-08T23:35:23.954Z,13.61
2023-08-08T23:37:52.421Z,13.61
2023-08-08T23:40:20.951Z,13.60
2023-08-08T23:42:49.383Z,13.59
2023-08-08T23:45:18.051Z,13.58
2023-08-08T23:47:46.884Z,13.56
2023-08-08T23:50:15.499Z,13.57
2023-08-08T23:52:44.380Z,13.57
2023-08-08T23:55:12.861Z,13.57
2023-08-08T23:57:41.248Z,13.58
